Time;durP1;ratioP1;P1;durP2;ratioP2;P2;SDS_P1;SDS_P2;PMS_P1;PMS_P2;Temp;Humidity;BMP_temperature;BMP_pressure;BME280_temperature;BME280_humidity;BME280_pressure;Samples;Min_cycle;Max_cycle;Signal;HPM_P1;HPM_P2
2022/06/19 00:02:10;;;;;;;13.57;3.30;;;;;;;18.19;69.59;100682.97;5058631;28;20024;-75
2022/06/19 00:04:36;;;;;;;13.05;3.08;;;;;;;18.12;69.44;100680.06;5063859;28;20120;-76
2022/06/19 00:07:01;;;;;;;14.05;2.83;;;;;;;18.06;69.71;100678.00;5058979;28;20131;-76
2022/06/19 00:09:27;;;;;;;13.65;3.47;;;;;;;18.01;70.04;100694.00;5056787;28;20107;-74
2022/06/19 00:11:55;;;;;;;13.32;3.15;;;;;;;17.92;69.68;100684.97;5059340;28;20031;-74
2022/06/19 00:14:20;;;;;;;11.43;3.00;;;;;;;17.86;69.49;100679.28;5061560;28;20435;-74
2022/06/19 00:16:46;;;;;;;9.32;2.92;;;;;;;17.78;70.02;100670.06;5057432;28;20039;-74
2022/06/19 00:19:11;;;;;;;11.82;3.05;;;;;;;17.75;70.44;100672.28;5051925;28;20021;-74
2022/06/19 00:21:36;;;;;;;13.32;2.95;;;;;;;17.70;70.06;100671.91;5062726;28;20079;-74
2022/06/19 00:24:02;;;;;;;12.75;3.40;;;;;;;17.63;70.59;100674.44;5053622;28;20119;-74
2022/06/19 00:26:27;;;;;;;14.73;3.40;;;;;;;17.57;70.50;100689.53;5070664;28;20040;-74
2022/06/19 00:28:53;;;;;;;14.43;3.15;;;;;;;17.52;69.84;100689.16;5067418;28;20123;-74
2022/06/19 00:31:18;;;;;;;9.63;2.70;;;;;;;17.50;70.73;100695.75;5069908;28;20032;-74
2022/06/19 00:33:44;;;;;;;10.77;2.60;;;;;;;17.46;70.93;100703.38;5054407;28;20017;-74
2022/06/19 00:36:10;;;;;;;21.15;3.60;;;;;;;17.43;71.09;100707.28;5053788;28;20047;-74
2022/06/19 00:38:35;;;;;;;17.40;3.60;;;;;;;17.38;70.51;100708.75;5060667;28;20025;-75
2022/06/19 00:41:02;;;;;;;11.68;3.25;;;;;;;17.35;71.36;100703.66;5051788;28;20082;-75
2022/06/19 00:43:28;;;;;;;16.38;3.05;;;;;;;17.27;71.20;100696.31;5053865;28;20029;-75
2022/06/19 00:45:58;;;;;;;11.20;3.10;;;;;;;17.23;70.14;100705.78;5060798;28;20043;-75
2022/06/19 00:48:41;;;;;;;9.57;2.78;;;;;;;17.20;70.73;100696.09;5051730;28;20025;-75
2022/06/19 00:51:09;;;;;;;12.55;3.22;;;;;;;17.11;70.59;100702.50;5074017;28;20032;-75
2022/06/19 00:53:42;;;;;;;14.38;3.33;;;;;;;17.04;70.22;100699.56;5059599;28;20052;-75
2022/06/19 00:56:14;;;;;;;18.13;3.58;;;;;;;16.97;69.48;100703.94;5066503;28;20036;-75
2022/06/19 00:58:40;;;;;;;10.48;2.70;;;;;;;16.95;69.79;100708.66;5055106;28;20032;-75
2022/06/19 01:01:11;;;;;;;13.60;3.22;;;;;;;16.90;69.46;100711.84;5056017;28;20055;-75
2022/06/19 01:03:53;;;;;;;14.57;3.67;;;;;;;16.86;68.81;100704.13;5051734;28;20040;-75
2022/06/19 01:06:21;;;;;;;17.23;3.55;;;;;;;16.82;68.06;100691.88;5064165;28;20037;-75
2022/06/19 01:08:47;;;;;;;15.93;3.15;;;;;;;16.77;68.14;100689.66;5065082;28;20032;-74
2022/06/19 01:11:14;;;;;;;12.32;2.90;;;;;;;16.71;67.98;100682.97;5053065;28;20078;-74
2022/06/19 01:13:39;;;;;;;15.85;3.55;;;;;;;16.68;67.78;100693.31;5051341;28;20029;-74
2022/06/19 01:16:06;;;;;;;12.52;3.15;;;;;;;16.66;67.13;100726.03;5051301;28;20039;-74
2022/06/19 01:18:34;;;;;;;15.38;3.25;;;;;;;16.63;68.00;100791.44;5054979;28;20028;-74
2022/06/19 01:21:09;;;;;;;18.00;3.33;;;;;;;16.63;66.49;100875.56;5064863;28;20025;-74
2022/06/19 01:23:53;;;;;;;14.35;3.88;;;;;;;16.68;67.56;100846.13;5064363;28;20048;-74
2022/06/19 01:26:21;;;;;;;16.50;3.60;;;;;;;16.63;65.46;100758.88;5062931;28;20044;-74
2022/06/19 01:28:56;;;;;;;14.02;3.30;;;;;;;16.58;66.36;100763.94;5071149;28;20028;-74
2022/06/19 01:31:32;;;;;;;17.33;3.88;;;;;;;16.56;66.37;100822.91;5058126;28;20120;-74
2022/06/19 01:34:26;;;;;;;17.45;3.03;;;;;;;16.53;65.18;100825.91;5055356;28;20357;-74
2022/06/19 01:36:49;;;;;;;15.32;3.20;;;;;;;16.45;63.69;100772.44;5062395;28;20036;-74
2022/06/19 01:39:15;;;;;;;8.48;2.38;;;;;;;16.39;64.58;100773.91;5063994;28;20024;-74
2022/06/19 01:41:40;;;;;;;15.68;3.17;;;;;;;16.36;64.69;100844.72;5053390;28;20028;-74
2022/06/19 01:44:06;;;;;;;13.25;3.15;;;;;;;16.34;64.26;100843.16;5060417;28;20048;-74
2022/06/19 01:46:31;;;;;;;17.23;4.05;;;;;;;16.30;63.54;100785.66;5055227;28;20124;-74
2022/06/19 01:48:57;;;;;;;14.48;2.53;;;;;;;16.25;63.32;100798.81;5069943;28;20052;-74
2022/06/19 01:51:22;;;;;;;12.70;2.80;;;;;;;16.21;63.51;100816.41;5074749;28;20040;-74
2022/06/19 01:53:50;;;;;;;12.85;2.92;;;;;;;16.17;63.42;100804.16;5069578;28;20021;-74
2022/06/19 01:56:15;;;;;;;13.23;3.15;;;;;;;16.07;61.41;100813.16;5063114;28;20055;-74
2022/06/19 01:58:46;;;;;;;17.02;3.45;;;;;;;16.03;61.71;100833.47;5057694;28;20032;-74
2022/06/19 02:01:11;;;;;;;21.40;3.30;;;;;;;15.96;61.20;100813.38;5057167;28;20029;-74
2022/06/19 02:03:45;;;;;;;17.83;3.65;;;;;;;15.93;61.46;100826.34;5061185;28;20086;-74
2022/06/19 02:06:13;;;;;;;11.50;2.45;;;;;;;15.84;60.14;100828.09;5055799;28;20040;-74
2022/06/19 02:08:40;;;;;;;14.60;2.35;;;;;;;15.82;61.18;100816.56;5069550;28;20031;-74
2022/06/19 02:11:06;;;;;;;16.67;3.10;;;;;;;15.82;60.37;100830.09;5061913;28;20111;-74
2022/06/19 02:13:34;;;;;;;13.38;2.67;;;;;;;15.77;59.26;100816.97;5053187;28;20029;-74
2022/06/19 02:16:04;;;;;;;12.73;2.92;;;;;;;15.73;58.21;100819.09;5055055;28;20082;-74
2022/06/19 02:18:34;;;;;;;17.92;2.60;;;;;;;15.72;59.06;100800.28;5067083;28;20028;-74
2022/06/19 02:21:00;;;;;;;12.25;3.17;;;;;;;15.69;59.53;100812.25;5084910;28;20028;-74
2022/06/19 02:23:30;;;;;;;14.77;2.42;;;;;;;15.64;59.69;100822.72;5066860;28;20081;-74
2022/06/19 02:25:56;;;;;;;17.00;3.33;;;;;;;15.61;58.60;100831.13;5052470;28;20111;-74
2022/06/19 02:28:22;;;;;;;12.65;2.97;;;;;;;15.64;58.88;100832.69;5071308;28;22248;-74
2022/06/19 02:30:48;;;;;;;18.75;3.40;;;;;;;15.62;60.56;100834.69;5060413;28;20032;-74
2022/06/19 02:33:16;;;;;;;19.88;3.25;;;;;;;15.60;58.42;100833.97;5055552;28;20075;-74
2022/06/19 02:35:42;;;;;;;12.70;3.40;;;;;;;15.60;58.07;100842.94;5065145;28;20092;-74
2022/06/19 02:38:08;;;;;;;11.98;2.72;;;;;;;15.61;59.51;100844.69;5054366;28;20525;-74
2022/06/19 02:40:54;;;;;;;12.77;2.08;;;;;;;15.60;59.19;100840.25;5058896;28;20029;-74
2022/06/19 02:43:24;;;;;;;9.68;2.42;;;;;;;15.60;59.31;100858.38;5054126;28;20041;-74
2022/06/19 02:45:49;;;;;;;14.25;2.40;;;;;;;15.63;59.33;100847.22;5053928;28;20028;-74
2022/06/19 02:48:25;;;;;;;10.93;2.50;;;;;;;15.62;59.16;100821.13;5066005;28;20033;-74
2022/06/19 02:50:51;;;;;;;9.95;2.33;;;;;;;15.58;59.27;100815.16;5065576;28;20020;-74
2022/06/19 02:53:18;;;;;;;16.25;2.60;;;;;;;15.54;59.93;100816.44;5070568;28;20031;-74
2022/06/19 02:55:43;;;;;;;11.45;2.17;;;;;;;15.52;57.96;100835.56;5065199;28;20024;-74
2022/06/19 02:58:09;;;;;;;12.57;2.45;;;;;;;15.56;57.40;100901.13;5071925;28;20530;-74
2022/06/19 03:00:35;;;;;;;13.80;3.13;;;;;;;15.60;55.43;100950.47;5059341;28;20372;-74
2022/06/19 03:03:12;;;;;;;8.20;2.40;;;;;;;15.62;56.48;100943.88;5058786;28;20035;-74
2022/06/19 03:05:37;;;;;;;9.00;2.42;;;;;;;15.58;57.16;100891.03;5065754;28;20519;-74
2022/06/19 03:08:03;;;;;;;16.00;2.65;;;;;;;15.54;55.83;100860.63;5066920;28;20044;-74
2022/06/19 03:10:30;;;;;;;11.13;2.08;;;;;;;15.53;56.89;100848.13;5055867;28;20067;-74
2022/06/19 03:12:56;;;;;;;12.38;2.58;;;;;;;15.50;56.40;100855.66;5060953;28;20082;-74
2022/06/19 03:15:22;;;;;;;10.45;2.45;;;;;;;15.46;56.39;100855.09;5052723;28;20025;-74
2022/06/19 03:17:47;;;;;;;9.90;1.90;;;;;;;15.44;54.65;100838.13;5056099;28;20051;-74
2022/06/19 03:20:18;;;;;;;11.30;2.30;;;;;;;15.43;54.73;100824.72;5055045;28;20158;-74
2022/06/19 03:22:44;;;;;;;10.32;2.35;;;;;;;15.37;56.59;100812.63;5062437;28;20036;-74
2022/06/19 03:25:10;;;;;;;9.85;2.55;;;;;;;15.33;54.82;100797.66;5052302;28;20439;-74
2022/06/19 03:27:35;;;;;;;11.15;2.33;;;;;;;15.30;56.23;100816.91;5056132;28;20032;-74
2022/06/19 03:30:00;;;;;;;8.90;2.22;;;;;;;15.26;55.89;100840.72;5061320;28;20028;-74
2022/06/19 03:32:26;;;;;;;17.08;2.58;;;;;;;15.29;57.08;100845.84;5056424;28;20059;-74
2022/06/19 03:34:51;;;;;;;8.82;1.50;;;;;;;15.26;56.43;100820.94;5055839;28;20021;-74
2022/06/19 03:37:16;;;;;;;11.25;2.30;;;;;;;15.23;55.76;100804.94;5062329;28;20021;-74
2022/06/19 03:39:42;;;;;;;6.90;2.08;;;;;;;15.21;55.63;100813.22;5056983;28;20047;-74
2022/06/19 03:42:08;;;;;;;12.00;2.42;;;;;;;15.22;57.45;100814.09;5067018;28;20702;-74
2022/06/19 03:44:33;;;;;;;11.35;2.13;;;;;;;15.15;55.53;100755.09;5050654;28;20112;-74
2022/06/19 03:46:59;;;;;;;5.65;1.70;;;;;;;15.16;55.50;100761.38;5050452;28;20115;-74
2022/06/19 03:49:26;;;;;;;11.60;2.28;;;;;;;15.14;56.23;100774.16;5058083;28;20025;-74
2022/06/19 03:51:51;;;;;;;8.25;1.73;;;;;;;15.11;57.72;100820.47;5063422;28;20036;-74
2022/06/19 03:54:17;;;;;;;10.43;1.92;;;;;;;15.13;55.99;100897.00;5057457;28;20043;-74
2022/06/19 03:56:42;;;;;;;7.45;1.70;;;;;;;15.15;55.25;100925.66;5059413;28;20066;-74
2022/06/19 03:59:09;;;;;;;9.65;1.80;;;;;;;15.16;55.69;100896.72;5058711;28;20025;-74
2022/06/19 04:01:36;;;;;;;10.43;1.88;;;;;;;15.12;54.60;100812.22;5064852;28;20029;-74
2022/06/19 04:04:04;;;;;;;15.27;2.40;;;;;;;15.12;53.20;100838.44;5051892;28;20137;-74
2022/06/19 04:06:32;;;;;;;7.35;1.27;;;;;;;15.11;55.82;100843.00;5053500;28;20036;-74
2022/06/19 04:08:58;;;;;;;8.55;2.03;;;;;;;15.09;54.20;100819.78;5055373;28;20036;-74
2022/06/19 04:11:26;;;;;;;8.15;1.38;;;;;;;15.07;51.91;100786.59;5053473;28;20025;-74
2022/06/19 04:13:53;;;;;;;9.68;1.92;;;;;;;15.07;51.47;100775.78;5053033;28;20096;-74
2022/06/19 04:16:22;;;;;;;4.90;1.52;;;;;;;15.08;52.67;100743.16;5052041;28;20020;-74
2022/06/19 04:18:51;;;;;;;5.63;1.75;;;;;;;15.07;54.89;100722.47;5059454;28;20028;-74
2022/06/19 04:21:19;;;;;;;;;;;;;;;15.17;54.93;100703.53;5068273;28;20396;-74
2022/06/19 04:23:45;;;;;;;8.02;1.83;;;;;;;15.13;52.73;100685.88;5053623;28;19932;-74
2022/06/19 04:26:14;;;;;;;12.23;2.03;;;;;;;15.14;52.25;100679.44;5067910;28;20056;-75
2022/06/19 04:28:40;;;;;;;3.30;1.52;;;;;;;15.14;52.55;100658.66;5068767;28;20077;-75
2022/06/19 04:31:06;;;;;;;7.38;1.95;;;;;;;15.15;54.17;100678.44;5054518;28;20032;-75
2022/06/19 04:33:39;;;;;;;10.05;2.50;;;;;;;15.16;53.37;100658.50;5058865;28;20065;-75
2022/06/19 04:36:11;;;;;;;8.73;2.10;;;;;;;15.15;54.14;100664.91;5061230;28;20031;-75
2022/06/19 04:38:38;;;;;;;10.02;1.60;;;;;;;15.19;54.39;100663.63;5053650;28;20035;-75
2022/06/19 04:41:03;;;;;;;6.30;1.58;;;;;;;15.22;55.85;100666.03;5054944;28;20035;-75
2022/06/19 04:43:29;;;;;;;6.70;2.00;;;;;;;15.22;54.51;100668.72;5061434;28;20025;-75
2022/06/19 04:46:05;;;;;;;6.85;1.75;;;;;;;15.24;55.45;100672.13;5054832;28;20496;-75
2022/06/19 04:48:31;;;;;;;7.35;1.38;;;;;;;15.26;56.49;100637.66;5052958;28;20094;-75
2022/06/19 04:50:56;;;;;;;10.20;2.20;;;;;;;15.29;56.10;100621.09;5061097;28;21323;-75
2022/06/19 04:53:22;;;;;;;7.07;1.63;;;;;;;15.29;55.96;100621.09;5060532;28;20029;-75
2022/06/19 04:55:47;;;;;;;11.35;2.10;;;;;;;15.31;55.77;100608.25;5055461;28;20024;-75
2022/06/19 04:58:12;;;;;;;7.40;2.10;;;;;;;15.33;56.66;100600.88;5064831;28;20030;-75
2022/06/19 05:00:39;;;;;;;9.32;2.17;;;;;;;15.34;56.36;100599.88;5063676;28;20388;-75
2022/06/19 05:03:05;;;;;;;12.95;2.05;;;;;;;15.36;55.35;100627.63;5068845;28;20033;-75
2022/06/19 05:05:30;;;;;;;11.57;2.67;;;;;;;15.40;55.36;100638.16;5060598;28;20013;-74
2022/06/19 05:07:55;;;;;;;10.18;2.08;;;;;;;15.37;55.82;100652.84;5057647;28;20035;-74
2022/06/19 05:10:20;;;;;;;14.98;2.53;;;;;;;15.38;57.36;100696.03;5059440;28;20044;-74
2022/06/19 05:12:46;;;;;;;10.52;1.95;;;;;;;15.40;56.92;100697.75;5057443;28;20046;-74
2022/06/19 05:15:11;;;;;;;9.52;2.10;;;;;;;15.43;57.62;100683.91;5069031;28;20029;-74
2022/06/19 05:17:37;;;;;;;10.43;2.20;;;;;;;15.41;57.37;100665.09;5065459;28;20025;-74
2022/06/19 05:20:03;;;;;;;9.25;1.92;;;;;;;15.44;57.44;100677.50;5064784;28;20502;-74
2022/06/19 05:22:30;;;;;;;12.13;2.10;;;;;;;15.43;57.00;100686.63;5068896;28;21846;-74
2022/06/19 05:24:56;;;;;;;11.20;2.17;;;;;;;15.44;55.68;100696.47;5060874;28;20021;-74
2022/06/19 05:27:21;;;;;;;8.27;1.90;;;;;;;15.45;59.82;100714.41;5057621;28;20024;-74
2022/06/19 05:29:46;;;;;;;12.40;2.53;;;;;;;15.45;58.05;100741.50;5058083;28;20039;-74
2022/06/19 05:32:11;;;;;;;11.48;1.67;;;;;;;15.53;59.59;100744.31;5066112;28;20024;-74
2022/06/19 05:34:37;;;;;;;12.10;2.35;;;;;;;15.58;57.35;100763.69;5067034;28;20025;-74
2022/06/19 05:37:03;;;;;;;13.88;2.35;;;;;;;15.65;59.51;100797.34;5055326;28;20029;-74
2022/06/19 05:39:29;;;;;;;8.77;2.00;;;;;;;15.77;60.83;100799.84;5065245;28;20631;-74
2022/06/19 05:41:57;;;;;;;12.32;2.15;;;;;;;15.85;58.63;100800.00;5056043;28;20028;-74
2022/06/19 05:44:23;;;;;;;10.50;2.38;;;;;;;15.95;60.43;100808.09;5058239;28;20021;-74
2022/06/19 05:46:50;;;;;;;10.35;2.28;;;;;;;16.04;59.92;100812.63;5053569;28;20056;-74
2022/06/19 05:49:15;;;;;;;8.68;2.00;;;;;;;16.13;57.76;100800.03;5069571;28;20028;-74
2022/06/19 05:51:41;;;;;;;12.35;2.15;;;;;;;16.16;58.24;100786.16;5066287;28;20036;-74
2022/06/19 05:54:06;;;;;;;12.02;2.40;;;;;;;16.18;58.12;100804.00;5068907;28;20027;-74
2022/06/19 05:56:32;;;;;;;10.13;2.42;;;;;;;16.20;57.75;100829.09;5064126;28;20024;-74
2022/06/19 05:58:57;;;;;;;12.40;2.05;;;;;;;16.24;58.59;100843.22;5061827;28;20445;-74
2022/06/19 06:01:23;;;;;;;14.05;2.72;;;;;;;16.23;57.00;100838.78;5061028;28;20372;-74
2022/06/19 06:03:49;;;;;;;8.30;2.47;;;;;;;16.22;58.21;100850.63;5054479;28;20058;-74
2022/06/19 06:06:18;;;;;;;9.70;2.10;;;;;;;16.20;59.93;100855.38;5057020;28;20060;-74
2022/06/19 06:08:44;;;;;;;7.47;1.95;;;;;;;16.20;59.34;100866.22;5066477;28;20033;-74
2022/06/19 06:11:09;;;;;;;8.85;1.92;;;;;;;16.18;58.86;100882.63;5054446;28;20025;-74
2022/06/19 06:13:34;;;;;;;6.22;2.22;;;;;;;16.17;58.66;100909.91;5068938;28;20025;-74
2022/06/19 06:16:00;;;;;;;12.93;2.53;;;;;;;16.15;57.50;100903.75;5055629;28;20048;-74
2022/06/19 06:18:27;;;;;;;12.27;2.58;;;;;;;16.15;60.03;100895.63;5062256;28;20028;-74
2022/06/19 06:20:57;;;;;;;5.60;1.35;;;;;;;16.16;61.26;100891.91;5060154;28;20017;-74
2022/06/19 06:23:24;;;;;;;9.60;2.08;;;;;;;16.13;58.31;100960.84;5070101;28;20041;-74
2022/06/19 06:26:17;;;;;;;15.90;2.75;;;;;;;16.16;58.02;100986.81;5056851;28;20029;-74
2022/06/19 06:28:45;;;;;;;10.10;2.25;;;;;;;16.15;57.53;100998.66;5062556;28;20040;-74
2022/06/19 06:31:11;;;;;;;13.57;3.00;;;;;;;16.12;61.17;101013.38;5055149;28;20435;-74
2022/06/19 06:33:36;;;;;;;9.50;1.98;;;;;;;16.11;61.27;101056.91;5054525;28;20090;-74
2022/06/19 06:36:02;;;;;;;14.25;2.35;;;;;;;16.07;63.39;101105.97;5056323;28;20082;-74
2022/06/19 06:38:28;;;;;;;14.45;2.38;;;;;;;15.94;63.83;101140.63;5057103;28;20408;-74
2022/06/19 06:40:53;;;;;;;9.65;2.45;;;;;;;15.83;63.63;101130.78;5071293;28;20147;-74
2022/06/19 06:43:20;;;;;;;15.68;2.30;;;;;;;15.70;64.86;101131.00;5072996;28;20047;-74
2022/06/19 06:45:45;;;;;;;9.63;2.13;;;;;;;15.61;64.25;101133.69;5066265;28;20035;-74
2022/06/19 06:48:11;;;;;;;8.77;2.25;;;;;;;15.54;67.55;101127.97;5069986;28;20032;-74
2022/06/19 06:50:38;;;;;;;12.10;2.58;;;;;;;15.48;69.40;101120.41;5065405;28;20028;-75
2022/06/19 06:53:04;;;;;;;12.98;2.65;;;;;;;15.46;69.80;101106.13;5069097;28;20029;-74
2022/06/19 06:55:30;;;;;;;12.02;2.50;;;;;;;15.45;68.99;101099.03;5060484;28;20096;-74
2022/06/19 06:57:55;;;;;;;10.65;2.35;;;;;;;15.42;67.04;101094.72;5056905;28;20130;-74
2022/06/19 07:00:22;;;;;;;16.23;2.95;;;;;;;15.36;66.71;101085.31;5059787;28;20028;-74
2022/06/19 07:02:48;;;;;;;11.38;2.10;;;;;;;15.38;68.78;101080.59;5060090;28;20421;-74
2022/06/19 07:05:14;;;;;;;9.48;2.40;;;;;;;15.43;71.29;101085.59;5065628;28;20029;-74
2022/06/19 07:07:40;;;;;;;11.80;2.67;;;;;;;15.47;70.91;101086.19;5063353;28;20024;-72
2022/06/19 07:10:06;;;;;;;13.57;2.63;;;;;;;15.51;69.25;101084.91;5062253;28;20047;-72
2022/06/19 07:12:31;;;;;;;11.32;2.72;;;;;;;15.55;66.17;101099.91;5065041;28;20085;-73
2022/06/19 07:14:57;;;;;;;9.55;2.15;;;;;;;15.56;66.40;101123.25;5062785;28;20021;-70
2022/06/19 07:17:22;;;;;;;11.57;1.88;;;;;;;15.52;65.07;101151.63;5052107;28;20028;-70
2022/06/19 07:19:48;;;;;;;7.85;2.17;;;;;;;15.47;67.41;101141.19;5057503;28;20032;-70
2022/06/19 07:22:16;;;;;;;17.30;3.35;;;;;;;15.42;68.13;101127.22;5053934;28;20029;-69
2022/06/19 07:24:42;;;;;;;15.35;3.38;;;;;;;15.37;70.63;101099.69;5061888;28;20475;-70
2022/06/19 07:27:08;;;;;;;18.08;3.50;;;;;;;15.30;72.59;101056.06;5052615;28;20021;-70
2022/06/19 07:29:34;;;;;;;10.95;2.22;;;;;;;15.16;72.71;101041.06;5064592;28;20106;-70
2022/06/19 07:31:59;;;;;;;11.48;2.53;;;;;;;15.05;76.08;101013.22;5064971;28;20020;-69
2022/06/19 07:34:24;;;;;;;12.23;2.47;;;;;;;14.94;77.60;100998.81;5059372;28;20540;-68
2022/06/19 07:36:50;;;;;;;14.68;2.92;;;;;;;14.78;76.80;100949.78;5061778;28;20383;-74
2022/06/19 07:39:15;;;;;;;13.05;2.53;;;;;;;14.69;80.34;100956.88;5062997;28;20074;-74
2022/06/19 07:41:41;;;;;;;14.40;2.50;;;;;;;14.58;78.88;100955.06;5053172;28;20072;-74
2022/06/19 07:44:06;;;;;;;17.25;3.42;;;;;;;14.49;79.52;100940.53;5061933;28;20028;-74
2022/06/19 07:46:31;;;;;;;14.95;2.63;;;;;;;14.41;79.99;100907.06;5058394;28;20032;-74
2022/06/19 07:51:41;;;;;;;19.65;2.85;;;;;;;14.45;82.03;100959.84;5061693;28;20448;-74
2022/06/19 07:54:07;;;;;;;17.33;3.38;;;;;;;14.51;83.06;101032.34;5069083;28;20020;-74
2022/06/19 07:56:34;;;;;;;16.30;3.50;;;;;;;14.49;82.25;101069.47;5059112;28;20472;-74
2022/06/19 07:59:02;;;;;;;18.02;3.70;;;;;;;14.57;83.64;101098.56;5061038;28;20047;-74
2022/06/19 08:01:27;;;;;;;10.60;3.08;;;;;;;14.56;81.48;101089.59;5059578;28;20409;-74
2022/06/19 08:03:52;;;;;;;15.20;3.25;;;;;;;14.55;82.47;101058.13;5058268;28;20059;-74
2022/06/19 08:06:19;;;;;;;11.65;2.65;;;;;;;14.51;80.36;101040.47;5059323;28;20040;-74
2022/06/19 08:08:45;;;;;;;12.60;3.00;;;;;;;14.53;83.58;101035.78;5051408;28;20079;-73
2022/06/19 08:11:10;;;;;;;12.35;3.00;;;;;;;14.55;82.73;101019.41;5053859;28;20028;-73
2022/06/19 08:13:36;;;;;;;17.38;3.50;;;;;;;14.55;84.00;100989.66;5056289;28;20468;-74
2022/06/19 08:16:05;;;;;;;23.15;3.90;;;;;;;14.56;85.89;101027.38;5059257;28;20035;-74
2022/06/19 08:18:32;;;;;;;13.35;3.28;;;;;;;14.56;85.32;101045.47;5062485;28;20024;-74
2022/06/19 08:20:58;;;;;;;16.60;3.60;;;;;;;14.55;83.56;101025.66;5068688;28;20032;-74
2022/06/19 08:23:23;;;;;;;11.98;2.90;;;;;;;14.57;85.28;100991.25;5055837;28;20044;-74
2022/06/19 08:25:49;;;;;;;14.10;3.22;;;;;;;14.61;86.09;101003.53;5053845;28;20090;-73
2022/06/19 08:28:18;;;;;;;15.77;3.45;;;;;;;14.69;87.99;100992.03;5067957;28;20372;-73
2022/06/19 08:30:43;;;;;;;12.50;3.07;;;;;;;14.78;88.11;100983.09;5051326;28;20090;-74
2022/06/19 08:33:10;;;;;;;13.25;3.22;;;;;;;14.91;89.01;100980.16;5055350;28;20075;-74
2022/06/19 08:35:43;;;;;;;14.57;3.30;;;;;;;15.01;88.99;100970.22;5059173;28;20025;-74
2022/06/19 08:38:14;;;;;;;13.57;3.20;;;;;;;15.09;89.36;100957.84;5068753;28;20043;-74
2022/06/19 08:41:17;;;;;;;16.10;3.92;;;;;;;15.09;87.31;100937.03;5065722;28;20060;-74
2022/06/19 08:43:54;;;;;;;13.05;3.10;;;;;;;15.07;86.81;100921.94;5069596;28;20035;-74
2022/06/19 08:46:48;;;;;;;15.80;3.25;;;;;;;15.05;86.70;100865.22;5053863;28;20029;-74
2022/06/19 08:49:16;;;;;;;15.57;3.42;;;;;;;15.02;87.92;100866.38;5068432;28;20055;-75
2022/06/19 08:52:21;;;;;;;14.95;3.47;;;;;;;15.03;87.89;100880.75;5067256;28;20032;-75
2022/06/19 08:54:54;;;;;;;24.70;4.30;;;;;;;15.11;89.76;100907.09;5067271;28;20021;-75
2022/06/19 08:57:43;;;;;;;18.70;4.40;;;;;;;15.11;87.39;100902.56;5065184;28;20028;-75
2022/06/19 09:00:19;;;;;;;17.75;3.70;;;;;;;15.09;86.09;100909.09;5056530;28;20036;-75
2022/06/19 09:02:44;;;;;;;13.93;3.65;;;;;;;15.16;86.48;100921.09;5059173;28;20032;-75
2022/06/19 09:05:46;;;;;;;12.20;3.47;;;;;;;15.17;86.31;100939.91;5052645;28;20380;-75
2022/06/19 09:08:47;;;;;;;13.95;3.50;;;;;;;15.24;85.72;100958.28;5060032;28;20075;-74
2022/06/19 09:11:20;;;;;;;14.95;3.30;;;;;;;15.28;86.14;100962.44;5051724;28;20025;-74
2022/06/19 09:14:07;;;;;;;12.63;3.42;;;;;;;15.36;84.12;100987.81;5060071;28;20087;-74
2022/06/19 09:16:47;;;;;;;15.48;3.47;;;;;;;15.50;87.42;101020.88;5055435;28;20057;-74
2022/06/19 09:19:16;;;;;;;17.80;4.00;;;;;;;15.47;80.36;101049.09;5054969;28;20036;-74
2022/06/19 09:21:59;;;;;;;14.45;4.07;;;;;;;15.57;83.60;101065.38;5084853;28;20024;-74
2022/06/19 09:24:42;;;;;;;15.25;3.78;;;;;;;15.58;84.04;101041.84;5056355;28;20365;-74
2022/06/19 09:27:10;;;;;;;12.75;3.75;;;;;;;15.55;85.34;101051.13;5054557;28;20025;-74
2022/06/19 09:29:52;;;;;;;15.80;4.50;;;;;;;15.55;82.49;101032.19;5064123;28;20039;-74
2022/06/19 09:32:30;;;;;;;16.00;4.40;;;;;;;15.54;83.83;101038.59;5062666;28;20108;-74
2022/06/19 09:34:59;;;;;;;15.07;3.53;;;;;;;15.58;83.73;101031.00;5050474;28;20025;-74
2022/06/19 09:37:43;;;;;;;12.77;3.13;;;;;;;15.56;81.08;101012.19;5062286;28;20032;-74
2022/06/19 09:40:14;;;;;;;13.45;3.85;;;;;;;15.58;83.25;101007.50;5064879;28;20029;-74
2022/06/19 09:42:42;;;;;;;15.20;3.45;;;;;;;15.60;80.72;100991.97;5056793;28;20150;-74
2022/06/19 09:45:16;;;;;;;15.02;3.35;;;;;;;15.71;83.56;100969.28;5053270;28;20047;-74
2022/06/19 09:48:17;;;;;;;16.80;3.75;;;;;;;15.81;81.95;100951.22;5059471;28;20501;-74
2022/06/19 09:50:49;;;;;;;13.45;3.45;;;;;;;15.90;82.96;100947.63;5072503;28;20052;-74
2022/06/19 09:53:36;;;;;;;16.55;4.22;;;;;;;15.96;82.01;100957.03;5068840;28;20028;-74
2022/06/19 09:56:16;;;;;;;11.75;3.33;;;;;;;16.03;83.44;100960.88;5068207;28;20036;-74
2022/06/19 09:58:50;;;;;;;15.57;3.83;;;;;;;15.99;78.85;100937.75;5063381;28;20475;-74
2022/06/19 10:01:15;;;;;;;13.80;3.22;;;;;;;15.99;80.76;100936.91;5063026;28;20037;-74
2022/06/19 10:03:51;;;;;;;13.57;3.70;;;;;;;16.03;83.48;100928.34;5056459;28;20024;-74
2022/06/19 10:06:22;;;;;;;15.43;3.63;;;;;;;16.06;80.91;100927.19;5069502;28;20048;-74
2022/06/19 10:09:29;;;;;;;18.35;4.03;;;;;;;16.14;80.63;100927.31;5057182;28;20025;-74
2022/06/19 10:11:59;;;;;;;18.15;4.18;;;;;;;16.20;81.02;100912.31;5065689;28;20036;-74
2022/06/19 10:14:40;;;;;;;16.48;4.63;;;;;;;16.30;79.56;100904.16;5071470;28;20029;-74
2022/06/19 10:17:36;;;;;;;17.55;4.18;;;;;;;16.41;82.37;100899.38;5054607;28;20041;-74
2022/06/19 10:20:21;;;;;;;14.38;3.72;;;;;;;16.48;79.72;100896.91;5069889;28;20024;-74
2022/06/19 10:23:13;;;;;;;17.75;4.05;;;;;;;16.59;79.27;100885.88;5073994;28;20503;-74
2022/06/19 10:26:01;;;;;;;15.82;4.10;;;;;;;16.75;80.29;100896.06;5070284;28;20171;-74
2022/06/19 10:28:26;;;;;;;13.75;3.55;;;;;;;16.82;78.86;100871.88;5049966;28;20484;-74
2022/06/19 10:31:16;;;;;;;14.20;3.17;;;;;;;16.85;76.23;100893.31;5052658;28;20066;-74
2022/06/19 10:33:48;;;;;;;14.80;3.15;;;;;;;16.91;77.22;100910.84;5052212;28;20043;-74
2022/06/19 10:36:38;;;;;;;14.93;2.95;;;;;;;17.03;76.82;100915.06;5053282;28;20036;-74
2022/06/19 10:39:34;;;;;;;10.15;2.72;;;;;;;17.10;76.21;100909.88;5069588;28;20086;-74
2022/06/19 10:42:24;;;;;;;13.93;2.92;;;;;;;17.15;75.42;100904.84;5056018;28;20059;-74
2022/06/19 10:45:15;;;;;;;10.68;2.55;;;;;;;17.16;69.90;100901.13;5052862;28;20044;-74
2022/06/19 10:47:58;;;;;;;13.13;2.92;;;;;;;17.29;73.21;100904.31;5055214;28;20035;-74
2022/06/19 10:50:54;;;;;;;8.02;2.08;;;;;;;17.38;70.98;100907.97;5058728;28;20389;-74
2022/06/19 10:53:58;;;;;;;10.43;2.75;;;;;;;17.49;71.67;100931.31;5070484;28;20119;-74
2022/06/19 10:56:45;;;;;;;8.82;2.33;;;;;;;17.50;70.56;100941.19;5052819;28;20044;-74
2022/06/19 10:59:13;;;;;;;11.52;2.30;;;;;;;17.55;69.67;100962.44;5064110;28;20143;-74
2022/06/19 11:04:39;;;;;;;9.50;2.03;;;;;;;17.64;64.79;100958.78;5053142;28;20090;-74
2022/06/19 11:07:11;;;;;;;7.32;2.38;;;;;;;17.71;65.89;100957.16;5056275;28;20083;-74
2022/06/19 11:09:41;;;;;;;7.72;2.28;;;;;;;17.78;66.07;100955.50;5055823;28;20028;-74
2022/06/19 11:12:12;;;;;;;10.35;2.33;;;;;;;17.88;66.66;100949.13;5052165;28;20036;-74
2022/06/19 11:14:48;;;;;;;5.28;2.28;;;;;;;18.01;69.06;100962.34;5061178;28;20025;-75
2022/06/19 11:17:31;;;;;;;4.13;2.25;;;;;;;18.09;65.44;100984.19;5053614;28;20028;-75
2022/06/19 11:19:56;;;;;;;12.23;2.67;;;;;;;18.16;67.55;100985.25;5066710;28;20376;-75
2022/06/19 11:22:24;;;;;;;10.55;2.30;;;;;;;18.20;65.49;100999.38;5068002;28;20056;-75
2022/06/19 11:24:50;;;;;;;7.22;2.50;;;;;;;18.23;67.61;100993.59;5051367;28;20037;-75
2022/06/19 11:27:20;;;;;;;10.95;2.85;;;;;;;18.26;67.09;100990.56;5052030;28;20527;-75
2022/06/19 11:29:49;;;;;;;11.43;2.80;;;;;;;18.37;67.55;100986.75;5053156;28;20067;-75
2022/06/19 11:32:19;;;;;;;9.77;2.63;;;;;;;18.48;65.25;100994.66;5052288;28;20143;-75
2022/06/19 11:34:57;;;;;;;12.18;2.72;;;;;;;18.57;65.60;100992.81;5053121;28;20082;-75
2022/06/19 11:37:33;;;;;;;11.17;2.60;;;;;;;18.67;67.09;101002.56;5053081;28;20025;-75
2022/06/19 11:39:58;;;;;;;10.38;2.45;;;;;;;18.75;69.13;101004.47;5068479;28;20029;-75